createdAt,value
2022-08-18T00:01:16.051Z,28.47
2022-08-18T00:03:56.366Z,28.33
2022-08-18T00:06:29.572Z,27.30
2022-08-18T00:08:59.794Z,27.33
2022-08-18T00:11:40.416Z,28.47
2022-08-18T00:14:12.227Z,27.67
2022-08-18T00:16:50.736Z,32.80
2022-08-18T00:19:20.461Z,34.87
2022-08-18T00:22:09.166Z,32.30
2022-08-18T00:24:47.825Z,30.97
2022-08-18T00:27:23.464Z,31.07
2022-08-18T00:29:52.763Z,31.00
2022-08-18T00:32:28.957Z,34.93
2022-08-18T00:34:58.976Z,33.07
2022-08-18T00:37:27.164Z,33.50
2022-08-18T00:39:55.608Z,33.20
2022-08-18T00:42:30.631Z,31.13
2022-08-18T00:45:02.569Z,29.40
2022-08-18T00:47:41.728Z,31.50
2022-08-18T00:50:15.924Z,31.40
2022-08-18T00:52:54.905Z,34.47
2022-08-18T00:55:24.832Z,30.63
2022-08-18T00:58:01.287Z,32.07
2022-08-18T01:00:29.736Z,32.80
2022-08-18T01:03:02.358Z,32.37
2022-08-18T01:05:40.805Z,28.07
2022-08-18T01:08:14.369Z,36.70
2022-08-18T01:10:43.353Z,31.23
2022-08-18T01:13:11.962Z,36.13
2022-08-18T01:15:40.674Z,32.47
2022-08-18T01:18:30.806Z,26.83
2022-08-18T01:21:42.284Z,30.60
2022-08-18T01:24:15.486Z,26.53
2022-08-18T01:26:50.340Z,29.70
2022-08-18T01:29:20.548Z,26.87
2022-08-18T01:31:56.043Z,27.07
2022-08-18T01:34:27.469Z,27.70
2022-08-18T01:36:56.492Z,29.30
2022-08-18T01:41:22.245Z,27.60
2022-08-18T01:42:17.896Z,31.43
2022-08-18T01:44:47.775Z,30.33
2022-08-18T01:47:17.137Z,33.47
2022-08-18T01:49:46.076Z,34.00
2022-08-18T01:52:19.496Z,34.03
2022-08-18T01:54:49.700Z,34.20
2022-08-18T01:57:19.673Z,30.83
2022-08-18T01:59:48.262Z,31.43
2022-08-18T02:02:24.417Z,33.90
2022-08-18T02:04:54.610Z,34.13
2022-08-18T02:07:22.940Z,31.80
2022-08-18T02:10:02.855Z,28.93
2022-08-18T02:12:31.137Z,33.43
2022-08-18T02:14:59.370Z,29.23
2022-08-18T02:17:27.758Z,28.57
2022-08-18T02:19:56.608Z,30.20
2022-08-18T02:22:24.889Z,25.63
2022-08-18T02:24:53.174Z,29.80
2022-08-18T02:27:22.753Z,26.97
2022-08-18T02:29:50.994Z,25.40
2022-08-18T02:32:19.256Z,26.83
2022-08-18T02:34:47.604Z,23.53
2022-08-18T02:37:15.901Z,24.10
2022-08-18T02:39:44.342Z,20.93
2022-08-18T02:42:14.787Z,23.20
2022-08-18T02:44:44.665Z,22.03
2022-08-18T02:47:13.203Z,21.20
2022-08-18T02:49:41.761Z,24.10
2022-08-18T02:52:10.809Z,23.83
2022-08-18T02:54:39.195Z,22.80
2022-08-18T02:57:09.231Z,22.47
2022-08-18T02:59:38.453Z,21.70
2022-08-18T03:02:10.544Z,22.87
2022-08-18T03:04:39.097Z,24.10
2022-08-18T03:07:09.247Z,21.60
2022-08-18T03:09:37.785Z,22.10
2022-08-18T03:12:07.289Z,20.07
2022-08-18T03:14:36.437Z,20.60
2022-08-18T03:17:06.833Z,21.27
2022-08-18T03:19:36.569Z,23.80
2022-08-18T03:22:24.305Z,24.73
2022-08-18T03:24:56.584Z,21.53
2022-08-18T03:27:24.952Z,30.67
2022-08-18T03:29:53.528Z,25.87
2022-08-18T03:32:22.087Z,30.60
2022-08-18T03:34:51.868Z,28.10
2022-08-18T03:37:20.732Z,28.47
2022-08-18T03:39:51.818Z,30.37
2022-08-18T03:42:20.217Z,30.40
2022-08-18T03:44:48.458Z,26.37
2022-08-18T03:47:18.146Z,27.97
2022-08-18T03:49:46.980Z,27.30
2022-08-18T03:52:16.717Z,23.63
2022-08-18T03:54:44.977Z,28.70
2022-08-18T03:57:14.074Z,31.20
2022-08-18T03:59:43.627Z,32.40
2022-08-18T04:02:13.111Z,29.73
2022-08-18T04:04:43.146Z,28.73
2022-08-18T04:07:17.294Z,28.70
2022-08-18T04:09:47.462Z,27.87
2022-08-18T04:12:17.648Z,28.67
2022-08-18T04:14:49.442Z,28.43
2022-08-18T04:17:25.134Z,26.43
2022-08-18T04:19:54.959Z,28.23
2022-08-18T04:22:24.911Z,23.60
2022-08-18T04:24:55.602Z,26.40
2022-08-18T04:27:24.830Z,27.10
2022-08-18T04:29:53.131Z,27.37
2022-08-18T04:32:21.408Z,41.73
2022-08-18T04:34:58.569Z,33.80
2022-08-18T04:37:32.598Z,26.73
2022-08-18T04:40:09.718Z,25.43
2022-08-18T04:42:43.266Z,25.30
2022-08-18T04:45:13.393Z,27.47
2022-08-18T04:47:43.143Z,28.30
2022-08-18T04:50:15.066Z,28.27
2022-08-18T04:53:06.217Z,26.97
2022-08-18T04:55:36.273Z,30.57
2022-08-18T04:58:04.781Z,30.77
2022-08-18T05:00:33.149Z,32.10
2022-08-18T05:03:01.585Z,29.17
2022-08-18T05:05:32.256Z,34.70
2022-08-18T05:08:01.147Z,32.30
2022-08-18T05:10:29.605Z,33.03
2022-08-18T05:12:59.442Z,38.50
2022-08-18T05:15:52.661Z,39.67
2022-08-18T05:18:24.799Z,36.43
2022-08-18T05:20:56.526Z,32.80
2022-08-18T05:23:25.784Z,34.13
2022-08-18T05:25:59.369Z,31.57
2022-08-18T05:28:29.571Z,28.80
2022-08-18T05:31:00.650Z,27.97
2022-08-18T05:33:29.093Z,28.30
2022-08-18T05:36:04.934Z,23.63
2022-08-18T05:38:46.462Z,24.27
2022-08-18T05:41:21.026Z,25.40
2022-08-18T05:43:58.505Z,26.17
2022-08-18T05:46:35.796Z,29.30
2022-08-18T05:49:04.107Z,31.57
2022-08-18T05:51:35.711Z,34.10
2022-08-18T05:54:23.565Z,31.80
2022-08-18T05:56:53.052Z,32.30
2022-08-18T05:59:26.301Z,35.77
2022-08-18T06:02:01.927Z,33.23
2022-08-18T06:04:44.666Z,35.33
2022-08-18T06:07:33.356Z,33.47
2022-08-18T06:10:03.417Z,28.20
2022-08-18T06:12:37.629Z,28.30
2022-08-18T06:15:15.243Z,29.77
2022-08-18T06:18:22.712Z,33.13
2022-08-18T06:21:19.892Z,44.90
2022-08-18T06:23:57.827Z,33.00
2022-08-18T06:26:34.452Z,32.80
2022-08-18T06:29:14.792Z,29.80
2022-08-18T06:31:53.224Z,28.70
2022-08-18T06:34:32.618Z,27.63
2022-08-18T06:37:08.400Z,23.90
2022-08-18T06:39:45.344Z,24.70
2022-08-18T06:42:21.470Z,29.20
2022-08-18T06:44:54.504Z,20.80
2022-08-18T06:47:42.162Z,22.63
2022-08-18T06:50:20.797Z,25.10
2022-08-18T06:52:56.278Z,23.00
2022-08-18T06:55:34.190Z,27.50
2022-08-18T06:58:06.434Z,71.67
2022-08-18T07:00:36.648Z,52.40
2022-08-18T07:03:13.713Z,36.80
2022-08-18T07:06:01.589Z,31.87
2022-08-18T07:08:35.670Z,26.97
2022-08-18T07:11:14.863Z,25.07
2022-08-18T07:13:44.959Z,23.47
2022-08-18T07:16:34.278Z,24.40
2022-08-18T07:19:10.372Z,23.80
2022-08-18T07:21:40.827Z,20.90
2022-08-18T07:24:24.933Z,21.70
2022-08-18T07:27:02.469Z,20.90
2022-08-18T07:29:32.538Z,21.30
2022-08-18T07:32:04.475Z,20.83
2022-08-18T07:34:40.803Z,68.43
2022-08-18T07:37:16.231Z,34.60
2022-08-18T07:39:50.484Z,18.33
2022-08-18T07:42:33.050Z,16.10
2022-08-18T07:45:24.650Z,14.53
2022-08-18T07:48:01.559Z,14.43
2022-08-18T07:50:58.441Z,11.83
2022-08-18T07:53:38.491Z,11.60
2022-08-18T07:56:17.960Z,10.73
2022-08-18T07:58:49.036Z,9.13
2022-08-18T08:01:27.755Z,10.37
2022-08-18T08:04:05.513Z,8.80
2022-08-18T08:07:00.581Z,8.87
2022-08-18T08:09:51.643Z,8.70
2022-08-18T08:12:32.201Z,7.47
2022-08-18T08:15:12.495Z,8.43
2022-08-18T08:17:49.355Z,7.43
2022-08-18T08:20:33.521Z,7.30
2022-08-18T08:23:17.298Z,8.27
2022-08-18T08:25:56.438Z,7.10
2022-08-18T08:28:36.152Z,7.90
2022-08-18T08:31:35.382Z,6.83
2022-08-18T08:34:10.705Z,7.80
2022-08-18T08:36:42.114Z,7.37
2022-08-18T08:39:17.245Z,7.00
2022-08-18T08:41:51.309Z,5.80
2022-08-18T08:44:25.183Z,5.87
2022-08-18T08:46:57.974Z,6.70
2022-08-18T08:49:34.614Z,6.60
2022-08-18T08:52:08.282Z,5.50
2022-08-18T08:54:45.475Z,5.90
2022-08-18T08:57:15.773Z,5.90
2022-08-18T08:59:47.134Z,4.30
2022-08-18T09:02:47.705Z,4.83
2022-08-18T09:05:21.506Z,6.00
2022-08-18T09:08:28.766Z,5.10
2022-08-18T09:11:27.721Z,4.50
2022-08-18T09:14:19.272Z,4.57
2022-08-18T09:17:00.319Z,6.20
2022-08-18T09:19:52.191Z,5.30
2022-08-18T09:22:32.417Z,6.57
2022-08-18T09:25:01.006Z,5.43
2022-08-18T09:28:09.315Z,5.83
2022-08-18T09:30:42.938Z,5.40
2022-08-18T09:33:21.114Z,6.33
2022-08-18T09:36:08.977Z,7.07
2022-08-18T09:39:07.475Z,6.47
2022-08-18T09:41:45.704Z,4.80
2022-08-18T09:45:02.032Z,5.70
2022-08-18T09:47:59.432Z,5.00
2022-08-18T09:50:38.870Z,4.47
2022-08-18T09:53:34.049Z,6.17
2022-08-18T09:59:02.093Z,4.33
2022-08-18T10:01:52.088Z,5.00
2022-08-18T10:04:33.312Z,5.70
2022-08-18T10:07:43.261Z,5.97
2022-08-18T10:11:01.149Z,4.20
2022-08-18T10:13:25.474Z,4.80
2022-08-18T10:16:10.896Z,5.13
2022-08-18T10:19:08.029Z,5.30
2022-08-18T10:22:06.337Z,4.50
2022-08-18T10:24:38.480Z,4.47
2022-08-18T10:27:13.085Z,3.90
2022-08-18T10:29:51.644Z,5.30
2022-08-18T10:32:39.971Z,4.30
2022-08-18T10:35:52.512Z,3.70
2022-08-18T10:38:49.407Z,4.90
2022-08-18T10:41:27.181Z,3.47
2022-08-18T10:44:01.040Z,3.90
2022-08-18T10:46:36.964Z,4.47
2022-08-18T10:49:21.483Z,10.30
2022-08-18T10:52:09.885Z,11.10
2022-08-18T10:55:10.356Z,9.30
2022-08-18T10:58:01.753Z,6.40
2022-08-18T11:00:44.954Z,5.23
2022-08-18T11:03:52.218Z,4.60
2022-08-18T11:06:21.908Z,3.80
2022-08-18T11:08:55.038Z,4.27
2022-08-18T11:11:38.021Z,4.37
2022-08-18T11:14:29.394Z,3.70
2022-08-18T11:17:07.656Z,3.90
2022-08-18T11:19:42.110Z,3.97
2022-08-18T11:22:32.583Z,4.43
2022-08-18T11:25:03.086Z,4.30
2022-08-18T11:27:36.485Z,3.60
2022-08-18T11:30:08.153Z,3.40
2022-08-18T11:32:52.206Z,3.53
2022-08-18T11:35:27.494Z,3.20
2022-08-18T11:37:59.908Z,3.30
2022-08-18T11:43:40.752Z,3.43
2022-08-18T11:49:17.548Z,3.33
2022-08-18T11:52:02.964Z,3.50
2022-08-18T11:54:50.560Z,3.30
2022-08-18T11:57:46.729Z,3.93
2022-08-18T12:00:44.306Z,5.40
2022-08-18T12:03:21.898Z,4.00
2022-08-18T12:05:56.356Z,4.10
2022-08-18T12:08:56.457Z,3.50
2022-08-18T12:11:27.114Z,3.43
2022-08-18T12:14:29.753Z,3.30
2022-08-18T12:16:54.113Z,3.40
2022-08-18T12:19:24.219Z,4.50
2022-08-18T12:21:57.900Z,3.07
2022-08-18T12:24:36.602Z,3.40
2022-08-18T12:27:20.939Z,2.97
2022-08-18T12:29:51.724Z,3.20
2022-08-18T12:32:46.833Z,3.67
2022-08-18T12:35:12.958Z,20.80
2022-08-18T12:38:03.622Z,24.23
2022-08-18T12:40:33.277Z,11.33
2022-08-18T12:43:01.763Z,8.70
2022-08-18T12:45:31.164Z,8.23
2022-08-18T12:48:04.358Z,7.00
2022-08-18T12:50:37.834Z,5.53
2022-08-18T12:53:12.489Z,5.10
2022-08-18T12:55:45.481Z,4.60
2022-08-18T12:58:14.213Z,4.20
2022-08-18T13:00:43.743Z,3.90
2022-08-18T13:03:13.411Z,3.73
2022-08-18T13:05:41.803Z,4.00
2022-08-18T13:08:27.586Z,3.50
2022-08-18T13:11:00.368Z,3.40
2022-08-18T13:13:55.042Z,3.40
2022-08-18T13:16:38.724Z,3.10
2022-08-18T13:19:15.984Z,3.10
2022-08-18T13:21:45.335Z,2.87
2022-08-18T13:24:14.117Z,2.97
2022-08-18T13:26:46.825Z,3.57
2022-08-18T13:29:18.433Z,3.30
2022-08-18T13:31:55.525Z,10.30
2022-08-18T13:34:29.865Z,12.87
2022-08-18T13:36:58.954Z,9.80
2022-08-18T13:39:33.893Z,7.70
2022-08-18T13:42:21.689Z,6.73
2022-08-18T13:44:55.004Z,4.70
2022-08-18T13:47:27.875Z,4.30
2022-08-18T13:49:59.940Z,4.10
2022-08-18T13:52:35.608Z,3.40
2022-08-18T13:55:12.015Z,3.80
2022-08-18T13:57:49.808Z,4.40
2022-08-18T14:00:29.985Z,3.43
2022-08-18T14:03:03.189Z,18.93
2022-08-18T14:05:36.520Z,14.13
2022-08-18T14:08:19.817Z,11.00
2022-08-18T14:10:53.202Z,5.87
2022-08-18T14:13:24.624Z,5.63
2022-08-18T14:15:55.946Z,4.60
2022-08-18T14:18:29.240Z,4.20
2022-08-18T14:21:24.329Z,3.37
2022-08-18T14:24:10.502Z,3.10
2022-08-18T14:26:50.473Z,3.33
2022-08-18T14:29:45.748Z,3.37
2022-08-18T14:32:09.335Z,3.00
2022-08-18T14:34:50.983Z,3.30
2022-08-18T14:37:26.396Z,3.30
2022-08-18T14:39:54.975Z,3.20
2022-08-18T14:42:41.253Z,3.27
2022-08-18T14:45:17.914Z,3.20
2022-08-18T14:47:56.822Z,2.90
2022-08-18T14:50:26.820Z,3.10
2022-08-18T14:52:56.580Z,3.07
2022-08-18T14:55:27.619Z,3.10
2022-08-18T14:57:59.292Z,2.60
2022-08-18T15:00:28.815Z,3.13
2022-08-18T15:02:59.684Z,2.67
2022-08-18T15:05:32.200Z,3.20
2022-08-18T15:08:05.257Z,3.40
2022-08-18T15:10:34.484Z,2.83
2022-08-18T15:13:03.940Z,2.37
2022-08-18T15:15:50.635Z,3.20
2022-08-18T15:18:22.665Z,2.47
2022-08-18T15:21:10.464Z,2.47
2022-08-18T15:24:19.965Z,3.30
2022-08-18T15:26:51.663Z,3.20
2022-08-18T15:29:22.770Z,3.20
2022-08-18T15:32:05.197Z,3.87
2022-08-18T15:34:47.011Z,3.27
2022-08-18T15:37:20.288Z,3.23
2022-08-18T15:40:05.447Z,4.90
2022-08-18T15:42:34.005Z,18.53
2022-08-18T15:45:12.009Z,6.20
2022-08-18T15:47:42.590Z,3.60
2022-08-18T15:50:25.175Z,3.40
2022-08-18T15:52:57.953Z,3.40
2022-08-18T15:55:32.982Z,3.17
2022-08-18T15:58:10.714Z,3.30
2022-08-18T16:00:42.638Z,3.30
2022-08-18T16:03:14.628Z,3.17
2022-08-18T16:05:51.582Z,2.73
2022-08-18T16:08:23.583Z,2.90
2022-08-18T16:10:54.759Z,3.20
2022-08-18T16:13:57.614Z,2.87
2022-08-18T16:16:40.289Z,3.13
2022-08-18T16:19:08.891Z,2.53
2022-08-18T16:21:40.016Z,3.80
2022-08-18T16:24:09.422Z,2.90
2022-08-18T16:26:39.274Z,2.93
2022-08-18T16:29:07.717Z,3.50
2022-08-18T16:31:36.417Z,3.30
2022-08-18T16:34:05.909Z,3.80
2022-08-18T16:36:34.887Z,3.00
2022-08-18T16:39:03.246Z,3.43
2022-08-18T16:41:31.915Z,3.23
2022-08-18T16:44:02.134Z,2.47
2022-08-18T16:46:30.573Z,3.20
2022-08-18T16:48:59.884Z,3.10
2022-08-18T16:51:29.721Z,3.00
2022-08-18T16:53:59.541Z,3.83
2022-08-18T16:56:30.633Z,3.77
2022-08-18T16:59:17.013Z,6.77
2022-08-18T17:02:04.025Z,7.77
2022-08-18T17:04:34.762Z,5.23
2022-08-18T17:07:05.755Z,4.17
2022-08-18T17:09:35.782Z,4.00
2022-08-18T17:12:05.340Z,3.50
2022-08-18T17:14:34.418Z,3.17
2022-08-18T17:17:05.878Z,3.90
2022-08-18T17:19:36.049Z,3.83
2022-08-18T17:22:06.018Z,3.20
2022-08-18T17:24:34.684Z,3.57
2022-08-18T17:27:12.226Z,2.90
2022-08-18T17:30:04.682Z,3.20
2022-08-18T17:32:41.773Z,3.90
2022-08-18T17:35:15.005Z,3.40
2022-08-18T17:37:49.418Z,3.70
2022-08-18T17:40:22.418Z,4.07
2022-08-18T17:42:53.770Z,3.30
2022-08-18T17:45:22.926Z,3.20
2022-08-18T17:47:59.666Z,3.23
2022-08-18T17:50:51.687Z,3.47
2022-08-18T17:53:21.370Z,3.30
2022-08-18T17:55:53.686Z,3.50
2022-08-18T17:58:28.240Z,3.70
2022-08-18T18:00:58.982Z,3.30
2022-08-18T18:03:30.475Z,3.40
2022-08-18T18:08:55.515Z,2.53
2022-08-18T18:11:32.268Z,2.60
2022-08-18T18:14:02.276Z,3.13
2022-08-18T18:16:35.633Z,2.90
2022-08-18T18:19:07.977Z,3.10
2022-08-18T18:22:00.152Z,3.10
2022-08-18T18:24:33.210Z,3.40
2022-08-18T18:27:02.399Z,3.40
2022-08-18T18:29:38.141Z,3.07
2022-08-18T18:32:25.006Z,3.17
2022-08-18T18:35:10.943Z,3.20
2022-08-18T18:37:48.923Z,3.53
2022-08-18T18:40:25.121Z,3.17
2022-08-18T18:42:54.199Z,3.43
2022-08-18T18:45:27.706Z,3.13
2022-08-18T18:48:05.487Z,6.27
2022-08-18T18:50:52.970Z,13.40
2022-08-18T18:53:37.825Z,14.23
2022-08-18T18:56:17.962Z,10.10
2022-08-18T18:58:56.271Z,7.70
2022-08-18T19:01:33.839Z,5.30
2022-08-18T19:04:11.102Z,4.27
2022-08-18T19:06:49.290Z,3.67
2022-08-18T19:09:25.151Z,4.40
2022-08-18T19:12:03.834Z,3.93
2022-08-18T19:14:36.881Z,3.50
2022-08-18T19:17:14.485Z,3.40
2022-08-18T19:19:45.879Z,2.87
2022-08-18T19:22:22.090Z,4.30
2022-08-18T19:25:01.749Z,3.57
2022-08-18T19:27:36.515Z,3.43
2022-08-18T19:30:08.991Z,3.10
2022-08-18T19:32:44.172Z,3.70
2022-08-18T19:35:23.083Z,3.63
2022-08-18T19:38:18.692Z,3.80
2022-08-18T19:40:51.967Z,3.70
2022-08-18T19:43:27.472Z,3.40
2022-08-18T19:46:05.599Z,3.23
2022-08-18T19:48:44.233Z,3.50
2022-08-18T19:51:21.633Z,3.37
2022-08-18T19:54:10.144Z,3.90
2022-08-18T19:56:55.362Z,3.97
2022-08-18T19:59:45.189Z,4.00
2022-08-18T20:02:26.396Z,3.23
2022-08-18T20:05:09.352Z,4.13
2022-08-18T20:07:56.201Z,4.00
2022-08-18T20:10:50.287Z,4.13
2022-08-18T20:13:33.088Z,3.90
2022-08-18T20:16:14.444Z,4.23
2022-08-18T20:18:45.246Z,4.30
2022-08-18T20:21:39.838Z,4.17
2022-08-18T20:24:36.943Z,4.00
2022-08-18T20:27:38.994Z,4.90
2022-08-18T20:30:33.207Z,3.57
2022-08-18T20:33:20.594Z,4.23
2022-08-18T20:35:54.630Z,4.70
2022-08-18T20:38:34.213Z,4.00
2022-08-18T20:41:31.366Z,4.10
2022-08-18T20:44:14.675Z,4.00
2022-08-18T20:47:10.737Z,4.10
2022-08-18T20:49:52.779Z,3.93
2022-08-18T20:52:35.887Z,4.10
2022-08-18T20:55:17.135Z,4.27
2022-08-18T20:57:45.575Z,3.83
2022-08-18T21:00:22.666Z,3.70
2022-08-18T21:02:58.990Z,4.10
2022-08-18T21:05:29.628Z,4.30
2022-08-18T21:08:17.937Z,4.10
2022-08-18T21:10:51.517Z,4.47
2022-08-18T21:13:31.139Z,4.63
2022-08-18T21:16:01.308Z,4.43
2022-08-18T21:18:29.881Z,4.27
2022-08-18T21:21:00.374Z,4.90
2022-08-18T21:23:31.758Z,4.77
2022-08-18T21:26:06.389Z,4.50
2022-08-18T21:28:38.854Z,3.93
2022-08-18T21:31:41.795Z,4.90
2022-08-18T21:34:18.404Z,4.67
2022-08-18T21:36:53.539Z,4.13
2022-08-18T21:39:22.754Z,4.10
2022-08-18T21:41:54.399Z,3.97
2022-08-18T21:44:26.519Z,4.60
2022-08-18T21:47:07.796Z,4.53
2022-08-18T21:49:36.036Z,4.87
2022-08-18T21:52:04.681Z,4.60
2022-08-18T21:54:34.769Z,5.10
2022-08-18T21:57:20.726Z,5.33
2022-08-18T22:00:17.258Z,5.70
2022-08-18T22:02:51.844Z,5.60
2022-08-18T22:05:30.301Z,6.00
2022-08-18T22:08:21.716Z,6.43
2022-08-18T22:11:59.515Z,6.47
2022-08-18T22:14:18.724Z,5.40
2022-08-18T22:16:48.239Z,6.63
2022-08-18T22:19:27.679Z,6.87
2022-08-18T22:22:22.294Z,7.93
2022-08-18T22:24:54.185Z,6.80
2022-08-18T22:27:25.495Z,6.67
2022-08-18T22:30:01.653Z,7.17
2022-08-18T22:32:29.917Z,6.53
2022-08-18T22:34:59.516Z,6.50
2022-08-18T22:37:32.582Z,6.67
2022-08-18T22:40:03.415Z,6.40
2022-08-18T22:42:34.203Z,6.77
2022-08-18T22:45:05.457Z,6.73
2022-08-18T22:47:43.296Z,6.73
2022-08-18T22:50:15.314Z,6.87
2022-08-18T22:52:47.572Z,6.83
2022-08-18T22:55:21.746Z,7.47
2022-08-18T22:57:55.666Z,8.20
2022-08-18T23:00:26.258Z,8.27
2022-08-18T23:02:55.036Z,7.73
2022-08-18T23:05:26.813Z,7.93
2022-08-18T23:07:55.533Z,8.40
2022-08-18T23:10:23.916Z,8.20
2022-08-18T23:12:52.511Z,8.73
2022-08-18T23:15:22.857Z,7.37
2022-08-18T23:17:51.162Z,9.00
2022-08-18T23:20:20.054Z,8.83
2022-08-18T23:22:49.835Z,7.57
2022-08-18T23:25:18.300Z,9.23
2022-08-18T23:27:46.828Z,9.50
2022-08-18T23:30:15.319Z,9.87
2022-08-18T23:32:44.135Z,9.60
2022-08-18T23:35:12.757Z,10.23
2022-08-18T23:37:41.559Z,10.13
2022-08-18T23:40:14.895Z,10.80
2022-08-18T23:42:43.116Z,10.03
2022-08-18T23:45:12.053Z,11.40
2022-08-18T23:47:41.337Z,10.57
2022-08-18T23:50:10.761Z,10.27
2022-08-18T23:52:39.490Z,9.60
2022-08-18T23:55:08.984Z,10.20
2022-08-18T23:57:38.867Z,9.57
